sensor_id;sensor_type;location;lat;lon;timestamp;P1;durP1;ratioP1;P2;durP2;ratioP2
35324;SDS011;35135;47.510;19.036;2022-07-23T00:01:21;6.18;;;4.93;;
35324;SDS011;35135;47.510;19.036;2022-07-23T00:03:51;6.50;;;4.63;;
35324;SDS011;35135;47.510;19.036;2022-07-23T00:06:24;5.90;;;4.75;;
35324;SDS011;35135;47.510;19.036;2022-07-23T00:08:53;6.38;;;4.63;;
35324;SDS011;35135;47.510;19.036;2022-07-23T00:11:31;7.72;;;5.13;;
35324;SDS011;35135;47.510;19.036;2022-07-23T00:13:58;5.38;;;4.88;;
35324;SDS011;35135;47.510;19.036;2022-07-23T00:16:26;6.22;;;4.93;;
35324;SDS011;35135;47.510;19.036;2022-07-23T00:18:53;5.38;;;4.70;;
35324;SDS011;35135;47.510;19.036;2022-07-23T00:21:22;5.82;;;4.82;;
35324;SDS011;35135;47.510;19.036;2022-07-23T00:23:53;7.80;;;4.90;;
35324;SDS011;35135;47.510;19.036;2022-07-23T00:26:20;6.47;;;5.18;;
35324;SDS011;35135;47.510;19.036;2022-07-23T00:28:49;5.60;;;5.10;;
35324;SDS011;35135;47.510;19.036;2022-07-23T00:31:23;5.10;;;4.60;;
35324;SDS011;35135;47.510;19.036;2022-07-23T00:33:57;8.15;;;5.20;;
35324;SDS011;35135;47.510;19.036;2022-07-23T00:36:27;5.30;;;4.72;;
35324;SDS011;35135;47.510;19.036;2022-07-23T00:38:57;5.38;;;4.88;;
35324;SDS011;35135;47.510;19.036;2022-07-23T00:41:23;5.22;;;4.72;;
35324;SDS011;35135;47.510;19.036;2022-07-23T00:43:52;6.70;;;5.00;;
35324;SDS011;35135;47.510;19.036;2022-07-23T00:46:21;6.45;;;5.10;;
35324;SDS011;35135;47.510;19.036;2022-07-23T00:48:50;8.05;;;5.78;;
35324;SDS011;35135;47.510;19.036;2022-07-23T00:51:19;7.05;;;5.30;;
35324;SDS011;35135;47.510;19.036;2022-07-23T00:53:51;8.65;;;5.60;;
35324;SDS011;35135;47.510;19.036;2022-07-23T00:56:19;8.77;;;5.95;;
35324;SDS011;35135;47.510;19.036;2022-07-23T00:58:49;7.43;;;5.00;;
35324;SDS011;35135;47.510;19.036;2022-07-23T01:01:19;9.25;;;5.70;;
35324;SDS011;35135;47.510;19.036;2022-07-23T01:03:49;8.40;;;5.53;;
35324;SDS011;35135;47.510;19.036;2022-07-23T01:06:18;6.72;;;5.35;;
35324;SDS011;35135;47.510;19.036;2022-07-23T01:08:50;9.15;;;5.53;;
35324;SDS011;35135;47.510;19.036;2022-07-23T01:11:25;8.27;;;6.10;;
35324;SDS011;35135;47.510;19.036;2022-07-23T01:13:54;9.13;;;5.53;;
35324;SDS011;35135;47.510;19.036;2022-07-23T01:16:23;8.65;;;5.70;;
35324;SDS011;35135;47.510;19.036;2022-07-23T01:18:49;6.72;;;5.50;;
35324;SDS011;35135;47.510;19.036;2022-07-23T01:21:16;7.93;;;5.88;;
35324;SDS011;35135;47.510;19.036;2022-07-23T01:23:47;6.07;;;5.47;;
35324;SDS011;35135;47.510;19.036;2022-07-23T01:26:16;7.85;;;6.00;;
35324;SDS011;35135;47.510;19.036;2022-07-23T01:28:45;6.70;;;5.60;;
35324;SDS011;35135;47.510;19.036;2022-07-23T01:31:16;6.33;;;5.70;;
35324;SDS011;35135;47.510;19.036;2022-07-23T01:33:45;9.55;;;5.80;;
35324;SDS011;35135;47.510;19.036;2022-07-23T01:36:18;5.95;;;5.43;;
35324;SDS011;35135;47.510;19.036;2022-07-23T01:38:50;6.68;;;5.57;;
35324;SDS011;35135;47.510;19.036;2022-07-23T01:41:23;6.00;;;4.80;;
35324;SDS011;35135;47.510;19.036;2022-07-23T01:43:52;7.88;;;5.32;;
35324;SDS011;35135;47.510;19.036;2022-07-23T01:46:20;6.20;;;5.30;;
35324;SDS011;35135;47.510;19.036;2022-07-23T01:48:49;5.22;;;4.72;;
35324;SDS011;35135;47.510;19.036;2022-07-23T01:51:21;5.72;;;5.18;;
35324;SDS011;35135;47.510;19.036;2022-07-23T01:53:58;6.05;;;5.25;;
35324;SDS011;35135;47.510;19.036;2022-07-23T01:56:31;5.80;;;5.13;;
35324;SDS011;35135;47.510;19.036;2022-07-23T01:58:59;6.93;;;5.60;;
35324;SDS011;35135;47.510;19.036;2022-07-23T02:01:26;6.35;;;5.75;;
35324;SDS011;35135;47.510;19.036;2022-07-23T02:03:54;5.82;;;5.22;;
35324;SDS011;35135;47.510;19.036;2022-07-23T02:06:23;6.13;;;5.53;;
35324;SDS011;35135;47.510;19.036;2022-07-23T02:08:55;9.43;;;5.57;;
35324;SDS011;35135;47.510;19.036;2022-07-23T02:11:24;7.82;;;5.55;;
35324;SDS011;35135;47.510;19.036;2022-07-23T02:13:54;11.57;;;5.68;;
35324;SDS011;35135;47.510;19.036;2022-07-23T02:16:30;6.50;;;5.90;;
35324;SDS011;35135;47.510;19.036;2022-07-23T02:19:00;8.07;;;5.78;;
35324;SDS011;35135;47.510;19.036;2022-07-23T02:21:29;6.63;;;5.57;;
35324;SDS011;35135;47.510;19.036;2022-07-23T02:23:57;7.13;;;5.72;;
35324;SDS011;35135;47.510;19.036;2022-07-23T02:26:25;6.43;;;5.00;;
35324;SDS011;35135;47.510;19.036;2022-07-23T02:28:54;5.55;;;5.05;;
35324;SDS011;35135;47.510;19.036;2022-07-23T02:31:23;8.05;;;5.57;;
35324;SDS011;35135;47.510;19.036;2022-07-23T02:33:53;7.93;;;5.45;;
35324;SDS011;35135;47.510;19.036;2022-07-23T02:36:23;7.40;;;5.37;;
35324;SDS011;35135;47.510;19.036;2022-07-23T02:38:57;7.07;;;6.03;;
35324;SDS011;35135;47.510;19.036;2022-07-23T02:41:26;6.32;;;5.40;;
35324;SDS011;35135;47.510;19.036;2022-07-23T02:43:54;5.60;;;5.05;;
35324;SDS011;35135;47.510;19.036;2022-07-23T02:46:23;6.03;;;5.50;;
35324;SDS011;35135;47.510;19.036;2022-07-23T02:48:52;7.15;;;5.40;;
35324;SDS011;35135;47.510;19.036;2022-07-23T02:51:21;5.63;;;5.13;;
35324;SDS011;35135;47.510;19.036;2022-07-23T02:53:49;6.78;;;6.07;;
35324;SDS011;35135;47.510;19.036;2022-07-23T02:56:15;7.47;;;6.00;;
35324;SDS011;35135;47.510;19.036;2022-07-23T02:58:44;7.93;;;5.55;;
35324;SDS011;35135;47.510;19.036;2022-07-23T03:01:19;5.65;;;5.05;;
35324;SDS011;35135;47.510;19.036;2022-07-23T03:03:49;7.75;;;5.43;;
35324;SDS011;35135;47.510;19.036;2022-07-23T03:06:18;6.20;;;5.60;;
35324;SDS011;35135;47.510;19.036;2022-07-23T03:08:51;6.63;;;5.60;;
35324;SDS011;35135;47.510;19.036;2022-07-23T03:11:20;6.22;;;5.18;;
35324;SDS011;35135;47.510;19.036;2022-07-23T03:13:48;7.40;;;5.38;;
35324;SDS011;35135;47.510;19.036;2022-07-23T03:16:18;6.45;;;5.85;;
35324;SDS011;35135;47.510;19.036;2022-07-23T03:18:47;6.03;;;5.43;;
35324;SDS011;35135;47.510;19.036;2022-07-23T03:21:21;8.35;;;5.72;;
35324;SDS011;35135;47.510;19.036;2022-07-23T03:23:50;6.47;;;5.63;;
35324;SDS011;35135;47.510;19.036;2022-07-23T03:26:24;6.40;;;5.78;;
35324;SDS011;35135;47.510;19.036;2022-07-23T03:28:54;8.13;;;6.10;;
35324;SDS011;35135;47.510;19.036;2022-07-23T03:31:26;6.15;;;5.35;;
35324;SDS011;35135;47.510;19.036;2022-07-23T03:33:55;6.40;;;5.80;;
35324;SDS011;35135;47.510;19.036;2022-07-23T03:36:31;6.68;;;5.75;;
35324;SDS011;35135;47.510;19.036;2022-07-23T03:39:00;10.40;;;5.82;;
35324;SDS011;35135;47.510;19.036;2022-07-23T03:41:29;10.70;;;6.20;;
35324;SDS011;35135;47.510;19.036;2022-07-23T03:43:58;6.95;;;6.25;;
35324;SDS011;35135;47.510;19.036;2022-07-23T03:46:29;9.25;;;6.22;;
35324;SDS011;35135;47.510;19.036;2022-07-23T03:48:58;6.88;;;6.20;;
35324;SDS011;35135;47.510;19.036;2022-07-23T03:51:48;8.73;;;6.38;;
35324;SDS011;35135;47.510;19.036;2022-07-23T03:54:18;10.38;;;6.18;;
35324;SDS011;35135;47.510;19.036;2022-07-23T03:56:47;9.68;;;6.50;;
35324;SDS011;35135;47.510;19.036;2022-07-23T03:59:15;7.25;;;5.93;;
35324;SDS011;35135;47.510;19.036;2022-07-23T04:01:44;10.45;;;6.22;;
35324;SDS011;35135;47.510;19.036;2022-07-23T04:04:13;6.97;;;6.13;;
35324;SDS011;35135;47.510;19.036;2022-07-23T04:06:39;6.47;;;5.88;;
35324;SDS011;35135;47.510;19.036;2022-07-23T04:09:10;6.65;;;5.75;;
35324;SDS011;35135;47.510;19.036;2022-07-23T04:11:38;8.02;;;7.25;;
35324;SDS011;35135;47.510;19.036;2022-07-23T04:14:07;9.68;;;7.07;;
35324;SDS011;35135;47.510;19.036;2022-07-23T04:16:36;7.22;;;6.20;;
35324;SDS011;35135;47.510;19.036;2022-07-23T04:19:05;8.98;;;6.50;;
35324;SDS011;35135;47.510;19.036;2022-07-23T04:21:34;10.02;;;6.88;;
35324;SDS011;35135;47.510;19.036;2022-07-23T04:24:08;8.05;;;6.05;;
35324;SDS011;35135;47.510;19.036;2022-07-23T04:26:37;7.70;;;6.72;;
35324;SDS011;35135;47.510;19.036;2022-07-23T04:29:06;8.18;;;6.30;;
35324;SDS011;35135;47.510;19.036;2022-07-23T04:31:35;6.85;;;6.18;;
35324;SDS011;35135;47.510;19.036;2022-07-23T04:34:02;6.90;;;6.20;;
35324;SDS011;35135;47.510;19.036;2022-07-23T04:36:31;8.73;;;6.25;;
35324;SDS011;35135;47.510;19.036;2022-07-23T04:39:00;6.80;;;6.07;;
35324;SDS011;35135;47.510;19.036;2022-07-23T04:41:28;9.52;;;6.28;;
35324;SDS011;35135;47.510;19.036;2022-07-23T04:44:02;10.73;;;6.40;;
35324;SDS011;35135;47.510;19.036;2022-07-23T04:46:29;7.40;;;6.50;;
35324;SDS011;35135;47.510;19.036;2022-07-23T04:48:57;9.73;;;6.22;;
35324;SDS011;35135;47.510;19.036;2022-07-23T04:51:25;8.50;;;6.55;;
35324;SDS011;35135;47.510;19.036;2022-07-23T04:53:56;9.18;;;6.05;;
35324;SDS011;35135;47.510;19.036;2022-07-23T04:56:23;7.40;;;6.43;;
35324;SDS011;35135;47.510;19.036;2022-07-23T04:58:52;8.18;;;6.90;;
35324;SDS011;35135;47.510;19.036;2022-07-23T05:01:22;8.35;;;7.28;;
35324;SDS011;35135;47.510;19.036;2022-07-23T05:03:51;8.15;;;6.40;;
35324;SDS011;35135;47.510;19.036;2022-07-23T05:06:24;7.90;;;6.32;;
35324;SDS011;35135;47.510;19.036;2022-07-23T05:08:54;9.65;;;6.20;;
35324;SDS011;35135;47.510;19.036;2022-07-23T05:11:27;8.80;;;6.43;;
35324;SDS011;35135;47.510;19.036;2022-07-23T05:13:56;9.80;;;6.20;;
35324;SDS011;35135;47.510;19.036;2022-07-23T05:16:24;15.23;;;6.95;;
35324;SDS011;35135;47.510;19.036;2022-07-23T05:18:51;13.35;;;6.72;;
35324;SDS011;35135;47.510;19.036;2022-07-23T05:21:19;14.98;;;6.75;;
35324;SDS011;35135;47.510;19.036;2022-07-23T05:23:48;12.35;;;6.75;;
35324;SDS011;35135;47.510;19.036;2022-07-23T05:26:21;15.13;;;6.55;;
35324;SDS011;35135;47.510;19.036;2022-07-23T05:28:50;49.55;;;7.35;;
35324;SDS011;35135;47.510;19.036;2022-07-23T05:31:16;13.20;;;7.28;;
35324;SDS011;35135;47.510;19.036;2022-07-23T05:33:45;12.35;;;6.55;;
35324;SDS011;35135;47.510;19.036;2022-07-23T05:36:13;16.23;;;6.78;;
35324;SDS011;35135;47.510;19.036;2022-07-23T05:38:42;13.63;;;6.55;;
35324;SDS011;35135;47.510;19.036;2022-07-23T05:41:16;11.70;;;6.45;;
35324;SDS011;35135;47.510;19.036;2022-07-23T05:43:45;10.25;;;6.22;;
35324;SDS011;35135;47.510;19.036;2022-07-23T05:46:12;10.90;;;5.80;;
35324;SDS011;35135;47.510;19.036;2022-07-23T05:48:40;9.23;;;6.25;;
35324;SDS011;35135;47.510;19.036;2022-07-23T05:51:30;7.82;;;6.25;;
35324;SDS011;35135;47.510;19.036;2022-07-23T05:54:03;15.88;;;6.70;;
35324;SDS011;35135;47.510;19.036;2022-07-23T05:56:32;9.43;;;6.32;;
35324;SDS011;35135;47.510;19.036;2022-07-23T05:59:04;7.30;;;5.63;;
35324;SDS011;35135;47.510;19.036;2022-07-23T06:01:31;7.47;;;5.75;;
35324;SDS011;35135;47.510;19.036;2022-07-23T06:04:06;6.63;;;5.07;;
35324;SDS011;35135;47.510;19.036;2022-07-23T06:06:32;6.30;;;5.68;;
35324;SDS011;35135;47.510;19.036;2022-07-23T06:09:01;10.40;;;5.70;;
35324;SDS011;35135;47.510;19.036;2022-07-23T06:13:59;7.25;;;5.15;;
35324;SDS011;35135;47.510;19.036;2022-07-23T06:16:28;6.55;;;5.82;;
35324;SDS011;35135;47.510;19.036;2022-07-23T06:19:02;9.30;;;5.60;;
35324;SDS011;35135;47.510;19.036;2022-07-23T06:21:36;8.30;;;5.75;;
35324;SDS011;35135;47.510;19.036;2022-07-23T06:24:03;7.35;;;5.10;;
35324;SDS011;35135;47.510;19.036;2022-07-23T06:26:30;8.98;;;5.65;;
35324;SDS011;35135;47.510;19.036;2022-07-23T06:28:58;9.60;;;5.53;;
35324;SDS011;35135;47.510;19.036;2022-07-23T06:31:28;11.88;;;5.45;;
35324;SDS011;35135;47.510;19.036;2022-07-23T06:33:54;8.02;;;5.63;;
35324;SDS011;35135;47.510;19.036;2022-07-23T06:36:24;11.32;;;5.90;;
35324;SDS011;35135;47.510;19.036;2022-07-23T06:38:53;7.20;;;4.97;;
35324;SDS011;35135;47.510;19.036;2022-07-23T06:41:21;7.78;;;4.82;;
35324;SDS011;35135;47.510;19.036;2022-07-23T06:43:57;9.60;;;5.57;;
35324;SDS011;35135;47.510;19.036;2022-07-23T06:46:25;13.18;;;5.00;;
35324;SDS011;35135;47.510;19.036;2022-07-23T06:49:01;9.48;;;5.30;;
35324;SDS011;35135;47.510;19.036;2022-07-23T06:51:30;8.80;;;5.65;;
35324;SDS011;35135;47.510;19.036;2022-07-23T06:53:55;12.27;;;5.60;;
35324;SDS011;35135;47.510;19.036;2022-07-23T06:56:22;8.88;;;5.43;;
35324;SDS011;35135;47.510;19.036;2022-07-23T06:58:49;6.55;;;5.05;;
35324;SDS011;35135;47.510;19.036;2022-07-23T07:01:22;8.65;;;5.30;;
35324;SDS011;35135;47.510;19.036;2022-07-23T07:03:51;8.77;;;5.25;;
35324;SDS011;35135;47.510;19.036;2022-07-23T07:08:50;7.40;;;4.63;;
35324;SDS011;35135;47.510;19.036;2022-07-23T07:11:19;7.95;;;5.07;;
35324;SDS011;35135;47.510;19.036;2022-07-23T07:13:49;9.32;;;4.80;;
35324;SDS011;35135;47.510;19.036;2022-07-23T07:16:18;7.15;;;4.50;;
35324;SDS011;35135;47.510;19.036;2022-07-23T07:18:44;5.63;;;4.80;;
35324;SDS011;35135;47.510;19.036;2022-07-23T07:21:12;9.43;;;4.63;;
35324;SDS011;35135;47.510;19.036;2022-07-23T07:23:41;9.93;;;4.75;;
35324;SDS011;35135;47.510;19.036;2022-07-23T07:26:07;9.13;;;5.15;;
35324;SDS011;35135;47.510;19.036;2022-07-23T07:28:40;11.52;;;5.20;;
35324;SDS011;35135;47.510;19.036;2022-07-23T07:31:09;10.52;;;4.97;;
35324;SDS011;35135;47.510;19.036;2022-07-23T07:33:40;17.35;;;5.70;;
35324;SDS011;35135;47.510;19.036;2022-07-23T07:36:11;9.10;;;5.38;;
35324;SDS011;35135;47.510;19.036;2022-07-23T07:38:45;8.85;;;5.38;;
35324;SDS011;35135;47.510;19.036;2022-07-23T07:41:18;8.65;;;5.68;;
35324;SDS011;35135;47.510;19.036;2022-07-23T07:43:50;13.15;;;5.68;;
35324;SDS011;35135;47.510;19.036;2022-07-23T07:46:19;12.60;;;5.60;;
35324;SDS011;35135;47.510;19.036;2022-07-23T07:48:52;7.78;;;5.05;;
35324;SDS011;35135;47.510;19.036;2022-07-23T07:51:21;9.02;;;5.32;;
35324;SDS011;35135;47.510;19.036;2022-07-23T07:53:50;6.55;;;4.80;;
35324;SDS011;35135;47.510;19.036;2022-07-23T07:56:19;8.57;;;5.50;;
35324;SDS011;35135;47.510;19.036;2022-07-23T07:58:47;6.72;;;5.32;;
35324;SDS011;35135;47.510;19.036;2022-07-23T08:01:15;10.80;;;5.32;;
35324;SDS011;35135;47.510;19.036;2022-07-23T08:03:44;8.18;;;5.38;;
35324;SDS011;35135;47.510;19.036;2022-07-23T08:06:14;7.63;;;5.30;;
35324;SDS011;35135;47.510;19.036;2022-07-23T08:08:47;9.05;;;5.03;;
35324;SDS011;35135;47.510;19.036;2022-07-23T08:11:16;7.28;;;5.32;;
35324;SDS011;35135;47.510;19.036;2022-07-23T08:13:42;8.95;;;5.38;;
35324;SDS011;35135;47.510;19.036;2022-07-23T08:16:11;7.70;;;5.55;;
35324;SDS011;35135;47.510;19.036;2022-07-23T08:18:40;8.73;;;5.15;;
35324;SDS011;35135;47.510;19.036;2022-07-23T08:21:10;8.63;;;5.03;;
35324;SDS011;35135;47.510;19.036;2022-07-23T08:23:40;8.18;;;5.53;;
35324;SDS011;35135;47.510;19.036;2022-07-23T08:26:13;5.80;;;4.43;;
35324;SDS011;35135;47.510;19.036;2022-07-23T08:28:42;8.35;;;5.05;;
35324;SDS011;35135;47.510;19.036;2022-07-23T08:31:11;8.65;;;5.38;;
35324;SDS011;35135;47.510;19.036;2022-07-23T08:33:45;9.38;;;5.05;;
35324;SDS011;35135;47.510;19.036;2022-07-23T08:36:14;6.85;;;5.18;;
35324;SDS011;35135;47.510;19.036;2022-07-23T08:38:43;7.35;;;4.95;;
35324;SDS011;35135;47.510;19.036;2022-07-23T08:41:11;5.80;;;5.15;;
35324;SDS011;35135;47.510;19.036;2022-07-23T08:43:41;5.75;;;4.90;;
35324;SDS011;35135;47.510;19.036;2022-07-23T08:46:11;8.07;;;5.20;;
35324;SDS011;35135;47.510;19.036;2022-07-23T08:48:47;7.68;;;5.13;;
35324;SDS011;35135;47.510;19.036;2022-07-23T08:51:14;5.85;;;4.95;;
35324;SDS011;35135;47.510;19.036;2022-07-23T08:53:50;5.65;;;4.60;;
35324;SDS011;35135;47.510;19.036;2022-07-23T08:56:18;6.80;;;4.70;;
35324;SDS011;35135;47.510;19.036;2022-07-23T08:58:52;5.72;;;4.50;;
35324;SDS011;35135;47.510;19.036;2022-07-23T09:01:23;5.20;;;4.18;;
35324;SDS011;35135;47.510;19.036;2022-07-23T09:03:54;4.95;;;4.45;;
35324;SDS011;35135;47.510;19.036;2022-07-23T09:06:23;6.30;;;4.60;;
35324;SDS011;35135;47.510;19.036;2022-07-23T09:08:52;5.15;;;4.32;;
35324;SDS011;35135;47.510;19.036;2022-07-23T09:11:21;6.50;;;4.72;;
35324;SDS011;35135;47.510;19.036;2022-07-23T09:13:54;7.93;;;4.60;;
35324;SDS011;35135;47.510;19.036;2022-07-23T09:16:31;8.40;;;4.75;;
35324;SDS011;35135;47.510;19.036;2022-07-23T09:19:04;8.52;;;5.57;;
35324;SDS011;35135;47.510;19.036;2022-07-23T09:21:39;13.13;;;6.88;;
35324;SDS011;35135;47.510;19.036;2022-07-23T09:24:10;8.90;;;6.47;;
35324;SDS011;35135;47.510;19.036;2022-07-23T09:26:47;11.20;;;7.10;;
35324;SDS011;35135;47.510;19.036;2022-07-23T09:29:20;12.25;;;6.38;;
35324;SDS011;35135;47.510;19.036;2022-07-23T09:31:54;10.33;;;7.17;;
35324;SDS011;35135;47.510;19.036;2022-07-23T09:34:30;12.73;;;6.38;;
35324;SDS011;35135;47.510;19.036;2022-07-23T09:37:11;9.55;;;6.50;;
35324;SDS011;35135;47.510;19.036;2022-07-23T09:39:45;9.23;;;6.85;;
35324;SDS011;35135;47.510;19.036;2022-07-23T09:42:18;12.32;;;6.78;;
35324;SDS011;35135;47.510;19.036;2022-07-23T09:44:48;10.80;;;6.80;;
35324;SDS011;35135;47.510;19.036;2022-07-23T09:47:18;8.70;;;6.22;;
35324;SDS011;35135;47.510;19.036;2022-07-23T09:50:00;10.00;;;5.80;;
35324;SDS011;35135;47.510;19.036;2022-07-23T09:52:30;8.63;;;5.97;;
35324;SDS011;35135;47.510;19.036;2022-07-23T09:55:05;9.10;;;5.65;;
35324;SDS011;35135;47.510;19.036;2022-07-23T09:57:40;6.80;;;5.55;;
35324;SDS011;35135;47.510;19.036;2022-07-23T10:02:39;9.68;;;5.97;;
35324;SDS011;35135;47.510;19.036;2022-07-23T10:05:09;7.63;;;5.70;;
35324;SDS011;35135;47.510;19.036;2022-07-23T10:07:37;7.28;;;5.18;;
35324;SDS011;35135;47.510;19.036;2022-07-23T10:10:07;8.25;;;4.95;;
35324;SDS011;35135;47.510;19.036;2022-07-23T10:12:35;7.60;;;5.88;;
35324;SDS011;35135;47.510;19.036;2022-07-23T10:15:26;8.13;;;5.03;;
35324;SDS011;35135;47.510;19.036;2022-07-23T10:17:55;7.57;;;5.00;;
35324;SDS011;35135;47.510;19.036;2022-07-23T10:20:28;5.95;;;4.80;;
35324;SDS011;35135;47.510;19.036;2022-07-23T10:23:29;9.68;;;5.32;;
35324;SDS011;35135;47.510;19.036;2022-07-23T10:34:36;9.35;;;5.30;;
35324;SDS011;35135;47.510;19.036;2022-07-23T10:37:28;5.85;;;4.90;;
35324;SDS011;35135;47.510;19.036;2022-07-23T10:40:16;6.70;;;4.97;;
35324;SDS011;35135;47.510;19.036;2022-07-23T10:42:49;7.68;;;5.10;;
35324;SDS011;35135;47.510;19.036;2022-07-23T10:45:34;6.97;;;5.43;;
35324;SDS011;35135;47.510;19.036;2022-07-23T10:48:15;6.00;;;4.65;;
35324;SDS011;35135;47.510;19.036;2022-07-23T10:51:08;7.82;;;5.00;;
35324;SDS011;35135;47.510;19.036;2022-07-23T10:56:47;6.55;;;5.38;;
35324;SDS011;35135;47.510;19.036;2022-07-23T10:59:17;7.88;;;4.88;;
35324;SDS011;35135;47.510;19.036;2022-07-23T11:01:45;8.75;;;5.35;;
35324;SDS011;35135;47.510;19.036;2022-07-23T11:04:14;9.35;;;5.28;;
35324;SDS011;35135;47.510;19.036;2022-07-23T11:07:29;9.38;;;5.63;;
35324;SDS011;35135;47.510;19.036;2022-07-23T11:09:30;7.40;;;4.63;;
35324;SDS011;35135;47.510;19.036;2022-07-23T11:14:59;8.53;;;4.83;;
35324;SDS011;35135;47.510;19.036;2022-07-23T11:18:19;8.07;;;4.95;;
35324;SDS011;35135;47.510;19.036;2022-07-23T11:20:27;8.05;;;5.25;;
35324;SDS011;35135;47.510;19.036;2022-07-23T11:22:57;7.97;;;4.88;;
35324;SDS011;35135;47.510;19.036;2022-07-23T11:25:30;6.32;;;5.20;;
35324;SDS011;35135;47.510;19.036;2022-07-23T11:28:13;7.10;;;5.47;;
35324;SDS011;35135;47.510;19.036;2022-07-23T11:30:43;7.82;;;5.00;;
35324;SDS011;35135;47.510;19.036;2022-07-23T11:35:42;14.98;;;6.43;;
35324;SDS011;35135;47.510;19.036;2022-07-23T11:38:19;9.02;;;6.40;;
35324;SDS011;35135;47.510;19.036;2022-07-23T11:40:53;12.18;;;7.18;;
35324;SDS011;35135;47.510;19.036;2022-07-23T11:43:25;10.93;;;6.35;;
35324;SDS011;35135;47.510;19.036;2022-07-23T11:45:57;8.25;;;6.05;;
35324;SDS011;35135;47.510;19.036;2022-07-23T11:48:27;9.82;;;7.13;;
35324;SDS011;35135;47.510;19.036;2022-07-23T11:50:56;9.43;;;5.88;;
35324;SDS011;35135;47.510;19.036;2022-07-23T11:53:27;6.57;;;5.70;;
35324;SDS011;35135;47.510;19.036;2022-07-23T11:56:04;9.18;;;6.38;;
35324;SDS011;35135;47.510;19.036;2022-07-23T11:58:32;9.60;;;6.65;;
35324;SDS011;35135;47.510;19.036;2022-07-23T12:01:01;7.50;;;6.72;;
35324;SDS011;35135;47.510;19.036;2022-07-23T12:03:30;8.45;;;6.20;;
35324;SDS011;35135;47.510;19.036;2022-07-23T12:05:58;8.30;;;6.03;;
35324;SDS011;35135;47.510;19.036;2022-07-23T12:08:27;8.68;;;6.18;;
35324;SDS011;35135;47.510;19.036;2022-07-23T12:10:56;7.53;;;5.80;;
35324;SDS011;35135;47.510;19.036;2022-07-23T12:13:24;9.88;;;6.10;;
35324;SDS011;35135;47.510;19.036;2022-07-23T12:15:56;10.40;;;6.15;;
35324;SDS011;35135;47.510;19.036;2022-07-23T12:20:53;7.25;;;5.75;;
35324;SDS011;35135;47.510;19.036;2022-07-23T12:23:23;9.65;;;6.28;;
35324;SDS011;35135;47.510;19.036;2022-07-23T12:26:02;6.80;;;6.10;;
35324;SDS011;35135;47.510;19.036;2022-07-23T12:28:29;9.73;;;6.22;;
35324;SDS011;35135;47.510;19.036;2022-07-23T12:30:58;6.35;;;5.40;;
35324;SDS011;35135;47.510;19.036;2022-07-23T12:33:37;6.97;;;6.03;;
35324;SDS011;35135;47.510;19.036;2022-07-23T12:36:07;6.53;;;5.68;;
35324;SDS011;35135;47.510;19.036;2022-07-23T12:38:41;8.15;;;5.90;;
35324;SDS011;35135;47.510;19.036;2022-07-23T12:41:09;7.00;;;6.07;;
35324;SDS011;35135;47.510;19.036;2022-07-23T12:43:39;7.80;;;5.78;;
35324;SDS011;35135;47.510;19.036;2022-07-23T12:46:14;8.98;;;6.40;;
35324;SDS011;35135;47.510;19.036;2022-07-23T12:51:21;7.22;;;6.50;;
35324;SDS011;35135;47.510;19.036;2022-07-23T12:54:05;16.63;;;6.85;;
35324;SDS011;35135;47.510;19.036;2022-07-23T12:56:36;11.60;;;7.15;;
35324;SDS011;35135;47.510;19.036;2022-07-23T12:59:07;7.38;;;6.63;;
35324;SDS011;35135;47.510;19.036;2022-07-23T13:01:37;7.43;;;6.70;;
35324;SDS011;35135;47.510;19.036;2022-07-23T13:04:13;9.85;;;7.32;;
35324;SDS011;35135;47.510;19.036;2022-07-23T13:09:22;7.47;;;6.60;;
35324;SDS011;35135;47.510;19.036;2022-07-23T13:11:55;13.18;;;6.85;;
35324;SDS011;35135;47.510;19.036;2022-07-23T13:14:24;6.53;;;5.93;;
35324;SDS011;35135;47.510;19.036;2022-07-23T13:16:52;10.35;;;6.30;;
35324;SDS011;35135;47.510;19.036;2022-07-23T13:19:24;7.07;;;6.20;;
35324;SDS011;35135;47.510;19.036;2022-07-23T13:21:54;8.55;;;6.53;;
35324;SDS011;35135;47.510;19.036;2022-07-23T13:24:27;12.05;;;6.60;;
35324;SDS011;35135;47.510;19.036;2022-07-23T13:26:57;6.78;;;6.07;;
35324;SDS011;35135;47.510;19.036;2022-07-23T13:29:25;9.57;;;5.70;;
35324;SDS011;35135;47.510;19.036;2022-07-23T13:31:51;6.45;;;5.50;;
35324;SDS011;35135;47.510;19.036;2022-07-23T13:34:24;6.88;;;5.93;;
35324;SDS011;35135;47.510;19.036;2022-07-23T13:36:56;7.07;;;6.00;;
35324;SDS011;35135;47.510;19.036;2022-07-23T13:39:25;10.75;;;6.68;;
35324;SDS011;35135;47.510;19.036;2022-07-23T13:41:59;7.13;;;6.40;;
35324;SDS011;35135;47.510;19.036;2022-07-23T13:44:28;9.15;;;5.75;;
35324;SDS011;35135;47.510;19.036;2022-07-23T13:47:01;6.80;;;5.82;;
35324;SDS011;35135;47.510;19.036;2022-07-23T13:49:38;8.20;;;5.13;;
35324;SDS011;35135;47.510;19.036;2022-07-23T13:52:10;8.43;;;6.55;;
35324;SDS011;35135;47.510;19.036;2022-07-23T13:54:42;6.93;;;5.70;;
35324;SDS011;35135;47.510;19.036;2022-07-23T13:57:09;7.60;;;5.40;;
35324;SDS011;35135;47.510;19.036;2022-07-23T13:59:43;7.00;;;5.60;;
35324;SDS011;35135;47.510;19.036;2022-07-23T14:02:11;7.00;;;5.20;;
35324;SDS011;35135;47.510;19.036;2022-07-23T14:04:43;5.93;;;5.43;;
35324;SDS011;35135;47.510;19.036;2022-07-23T14:07:12;7.35;;;5.38;;
35324;SDS011;35135;47.510;19.036;2022-07-23T14:09:46;8.02;;;5.70;;
35324;SDS011;35135;47.510;19.036;2022-07-23T14:12:16;7.22;;;5.30;;
35324;SDS011;35135;47.510;19.036;2022-07-23T14:14:45;7.05;;;5.25;;
35324;SDS011;35135;47.510;19.036;2022-07-23T14:17:15;8.52;;;5.85;;
35324;SDS011;35135;47.510;19.036;2022-07-23T14:19:44;5.88;;;5.20;;
35324;SDS011;35135;47.510;19.036;2022-07-23T14:22:11;5.93;;;4.97;;
35324;SDS011;35135;47.510;19.036;2022-07-23T14:24:40;7.20;;;5.40;;
35324;SDS011;35135;47.510;19.036;2022-07-23T14:27:09;6.40;;;5.75;;
35324;SDS011;35135;47.510;19.036;2022-07-23T14:29:36;10.05;;;5.78;;
35324;SDS011;35135;47.510;19.036;2022-07-23T14:32:02;8.48;;;5.45;;
35324;SDS011;35135;47.510;19.036;2022-07-23T14:34:31;8.68;;;4.43;;
35324;SDS011;35135;47.510;19.036;2022-07-23T14:36:58;6.38;;;5.05;;
35324;SDS011;35135;47.510;19.036;2022-07-23T14:39:28;5.95;;;4.95;;
35324;SDS011;35135;47.510;19.036;2022-07-23T14:41:56;6.28;;;5.20;;
35324;SDS011;35135;47.510;19.036;2022-07-23T14:44:27;6.47;;;5.07;;
35324;SDS011;35135;47.510;19.036;2022-07-23T14:46:55;11.07;;;5.07;;
35324;SDS011;35135;47.510;19.036;2022-07-23T14:49:25;7.38;;;5.43;;
35324;SDS011;35135;47.510;19.036;2022-07-23T14:51:54;8.48;;;5.40;;
35324;SDS011;35135;47.510;19.036;2022-07-23T14:54:23;6.88;;;4.88;;
35324;SDS011;35135;47.510;19.036;2022-07-23T14:56:58;8.90;;;5.35;;
35324;SDS011;35135;47.510;19.036;2022-07-23T14:59:28;13.65;;;6.03;;
35324;SDS011;35135;47.510;19.036;2022-07-23T15:01:57;8.95;;;5.90;;
35324;SDS011;35135;47.510;19.036;2022-07-23T15:04:24;7.28;;;5.65;;
35324;SDS011;35135;47.510;19.036;2022-07-23T15:06:53;6.95;;;5.88;;
35324;SDS011;35135;47.510;19.036;2022-07-23T15:09:22;5.78;;;5.28;;
35324;SDS011;35135;47.510;19.036;2022-07-23T15:11:52;5.80;;;5.30;;
35324;SDS011;35135;47.510;19.036;2022-07-23T15:14:21;5.85;;;5.32;;
35324;SDS011;35135;47.510;19.036;2022-07-23T15:16:49;6.13;;;5.57;;
35324;SDS011;35135;47.510;19.036;2022-07-23T15:19:17;6.00;;;5.38;;
35324;SDS011;35135;47.510;19.036;2022-07-23T15:21:43;5.88;;;5.35;;
35324;SDS011;35135;47.510;19.036;2022-07-23T15:24:12;5.88;;;5.38;;
35324;SDS011;35135;47.510;19.036;2022-07-23T15:26:40;6.07;;;5.47;;